sensor_id;sensor_type;location;lat;lon;timestamp;P1;durP1;ratioP1;P2;durP2;ratioP2
1436;SDS011;712;51.026;13.792;2023-04-25T00:03:58;5.57;;;2.08;;
1436;SDS011;712;51.026;13.792;2023-04-25T00:06:23;4.80;;;1.83;;
1436;SDS011;712;51.026;13.792;2023-04-25T00:08:51;5.55;;;2.20;;
1436;SDS011;712;51.026;13.792;2023-04-25T00:11:16;5.15;;;2.00;;
1436;SDS011;712;51.026;13.792;2023-04-25T00:13:41;5.38;;;1.98;;
1436;SDS011;712;51.026;13.792;2023-04-25T00:16:07;5.10;;;2.13;;
1436;SDS011;712;51.026;13.792;2023-04-25T00:18:32;5.43;;;2.10;;
1436;SDS011;712;51.026;13.792;2023-04-25T00:20:58;5.47;;;2.00;;
1436;SDS011;712;51.026;13.792;2023-04-25T00:23:23;5.83;;;2.20;;
1436;SDS011;712;51.026;13.792;2023-04-25T00:25:49;4.95;;;2.03;;
1436;SDS011;712;51.026;13.792;2023-04-25T00:28:14;4.78;;;1.90;;
1436;SDS011;712;51.026;13.792;2023-04-25T00:30:40;4.55;;;1.90;;
1436;SDS011;712;51.026;13.792;2023-04-25T00:33:06;5.07;;;1.90;;
1436;SDS011;712;51.026;13.792;2023-04-25T00:35:31;5.95;;;2.03;;
1436;SDS011;712;51.026;13.792;2023-04-25T00:37:56;5.27;;;2.17;;
1436;SDS011;712;51.026;13.792;2023-04-25T00:40:21;3.83;;;1.70;;
1436;SDS011;712;51.026;13.792;2023-04-25T00:42:47;5.27;;;2.10;;
1436;SDS011;712;51.026;13.792;2023-04-25T00:45:12;5.90;;;2.43;;
1436;SDS011;712;51.026;13.792;2023-04-25T00:47:38;6.70;;;2.60;;
1436;SDS011;712;51.026;13.792;2023-04-25T00:50:05;6.38;;;2.58;;
1436;SDS011;712;51.026;13.792;2023-04-25T00:52:30;8.35;;;2.85;;
1436;SDS011;712;51.026;13.792;2023-04-25T00:54:56;6.30;;;2.70;;
1436;SDS011;712;51.026;13.792;2023-04-25T00:57:21;6.03;;;2.83;;
1436;SDS011;712;51.026;13.792;2023-04-25T00:59:46;6.80;;;2.83;;
1436;SDS011;712;51.026;13.792;2023-04-25T01:02:11;6.57;;;2.23;;
1436;SDS011;712;51.026;13.792;2023-04-25T01:04:37;6.38;;;2.85;;
1436;SDS011;712;51.026;13.792;2023-04-25T01:07:02;7.23;;;3.03;;
1436;SDS011;712;51.026;13.792;2023-04-25T01:09:27;6.13;;;2.40;;
1436;SDS011;712;51.026;13.792;2023-04-25T01:11:52;7.50;;;2.70;;
1436;SDS011;712;51.026;13.792;2023-04-25T01:14:18;7.65;;;2.90;;
1436;SDS011;712;51.026;13.792;2023-04-25T01:16:44;6.07;;;2.47;;
1436;SDS011;712;51.026;13.792;2023-04-25T01:19:10;7.38;;;2.67;;
1436;SDS011;712;51.026;13.792;2023-04-25T01:21:38;7.03;;;2.60;;
1436;SDS011;712;51.026;13.792;2023-04-25T01:24:04;6.95;;;2.60;;
1436;SDS011;712;51.026;13.792;2023-04-25T01:26:29;5.90;;;2.70;;
1436;SDS011;712;51.026;13.792;2023-04-25T01:28:54;7.35;;;2.95;;
1436;SDS011;712;51.026;13.792;2023-04-25T01:31:20;8.07;;;2.78;;
1436;SDS011;712;51.026;13.792;2023-04-25T01:33:46;5.35;;;2.67;;
1436;SDS011;712;51.026;13.792;2023-04-25T01:36:11;7.07;;;2.90;;
1436;SDS011;712;51.026;13.792;2023-04-25T01:38:37;5.88;;;2.50;;
1436;SDS011;712;51.026;13.792;2023-04-25T01:41:02;5.97;;;2.70;;
1436;SDS011;712;51.026;13.792;2023-04-25T01:43:27;5.80;;;2.93;;
1436;SDS011;712;51.026;13.792;2023-04-25T01:45:52;7.53;;;2.70;;
1436;SDS011;712;51.026;13.792;2023-04-25T01:48:18;7.05;;;2.55;;
1436;SDS011;712;51.026;13.792;2023-04-25T01:50:43;6.43;;;2.60;;
1436;SDS011;712;51.026;13.792;2023-04-25T01:53:09;6.93;;;3.40;;
1436;SDS011;712;51.026;13.792;2023-04-25T01:55:34;5.85;;;2.55;;
1436;SDS011;712;51.026;13.792;2023-04-25T01:58:00;7.35;;;2.70;;
1436;SDS011;712;51.026;13.792;2023-04-25T02:00:25;6.53;;;2.78;;
1436;SDS011;712;51.026;13.792;2023-04-25T02:02:50;6.50;;;2.57;;
1436;SDS011;712;51.026;13.792;2023-04-25T02:05:18;6.18;;;2.75;;
1436;SDS011;712;51.026;13.792;2023-04-25T02:07:43;8.10;;;2.83;;
1436;SDS011;712;51.026;13.792;2023-04-25T02:10:09;7.10;;;2.50;;
1436;SDS011;712;51.026;13.792;2023-04-25T02:12:35;7.18;;;2.70;;
1436;SDS011;712;51.026;13.792;2023-04-25T02:15:00;5.30;;;2.40;;
1436;SDS011;712;51.026;13.792;2023-04-25T02:17:25;8.17;;;2.50;;
1436;SDS011;712;51.026;13.792;2023-04-25T02:19:51;6.03;;;2.53;;
1436;SDS011;712;51.026;13.792;2023-04-25T02:22:16;4.55;;;2.00;;
1436;SDS011;712;51.026;13.792;2023-04-25T02:24:41;5.70;;;2.42;;
1436;SDS011;712;51.026;13.792;2023-04-25T02:27:06;5.88;;;2.50;;
1436;SDS011;712;51.026;13.792;2023-04-25T02:29:32;6.03;;;2.15;;
1436;SDS011;712;51.026;13.792;2023-04-25T02:31:57;6.03;;;2.70;;
1436;SDS011;712;51.026;13.792;2023-04-25T02:34:22;7.15;;;2.88;;
1436;SDS011;712;51.026;13.792;2023-04-25T02:36:48;7.20;;;2.60;;
1436;SDS011;712;51.026;13.792;2023-04-25T02:39:13;7.13;;;2.90;;
1436;SDS011;712;51.026;13.792;2023-04-25T02:41:38;6.43;;;2.63;;
1436;SDS011;712;51.026;13.792;2023-04-25T02:44:03;7.97;;;2.75;;
1436;SDS011;712;51.026;13.792;2023-04-25T02:46:29;5.53;;;2.60;;
1436;SDS011;712;51.026;13.792;2023-04-25T02:48:54;6.65;;;2.90;;
1436;SDS011;712;51.026;13.792;2023-04-25T02:51:19;5.83;;;2.70;;
1436;SDS011;712;51.026;13.792;2023-04-25T02:53:44;5.38;;;2.63;;
1436;SDS011;712;51.026;13.792;2023-04-25T02:56:09;7.63;;;2.70;;
1436;SDS011;712;51.026;13.792;2023-04-25T02:58:34;7.10;;;2.90;;
1436;SDS011;712;51.026;13.792;2023-04-25T03:01:00;5.85;;;3.20;;
1436;SDS011;712;51.026;13.792;2023-04-25T03:03:25;8.82;;;3.15;;
1436;SDS011;712;51.026;13.792;2023-04-25T03:05:50;7.23;;;3.03;;
1436;SDS011;712;51.026;13.792;2023-04-25T03:08:16;5.80;;;2.80;;
1436;SDS011;712;51.026;13.792;2023-04-25T03:10:41;7.80;;;4.15;;
1436;SDS011;712;51.026;13.792;2023-04-25T03:13:06;10.43;;;4.18;;
1436;SDS011;712;51.026;13.792;2023-04-25T03:15:32;7.03;;;3.30;;
1436;SDS011;712;51.026;13.792;2023-04-25T03:17:57;7.30;;;3.53;;
1436;SDS011;712;51.026;13.792;2023-04-25T03:20:22;8.32;;;3.35;;
1436;SDS011;712;51.026;13.792;2023-04-25T03:22:47;7.47;;;3.40;;
1436;SDS011;712;51.026;13.792;2023-04-25T03:25:12;7.43;;;3.35;;
1436;SDS011;712;51.026;13.792;2023-04-25T03:27:37;6.70;;;3.30;;
1436;SDS011;712;51.026;13.792;2023-04-25T03:30:03;7.28;;;3.35;;
1436;SDS011;712;51.026;13.792;2023-04-25T03:32:28;7.25;;;3.50;;
1436;SDS011;712;51.026;13.792;2023-04-25T03:34:53;8.82;;;4.05;;
1436;SDS011;712;51.026;13.792;2023-04-25T03:37:18;7.75;;;3.72;;
1436;SDS011;712;51.026;13.792;2023-04-25T03:39:43;9.02;;;3.90;;
1436;SDS011;712;51.026;13.792;2023-04-25T03:42:09;6.77;;;3.40;;
1436;SDS011;712;51.026;13.792;2023-04-25T03:44:34;6.80;;;3.70;;
1436;SDS011;712;51.026;13.792;2023-04-25T03:46:59;6.20;;;3.20;;
1436;SDS011;712;51.026;13.792;2023-04-25T03:49:24;8.20;;;3.83;;
1436;SDS011;712;51.026;13.792;2023-04-25T03:51:49;6.82;;;3.50;;
1436;SDS011;712;51.026;13.792;2023-04-25T03:54:16;7.68;;;3.70;;
1436;SDS011;712;51.026;13.792;2023-04-25T03:56:41;7.35;;;3.70;;
1436;SDS011;712;51.026;13.792;2023-04-25T03:59:06;9.33;;;3.97;;
1436;SDS011;712;51.026;13.792;2023-04-25T04:01:31;7.13;;;3.80;;
1436;SDS011;712;51.026;13.792;2023-04-25T04:03:56;7.20;;;3.63;;
1436;SDS011;712;51.026;13.792;2023-04-25T04:06:21;8.60;;;3.87;;
1436;SDS011;712;51.026;13.792;2023-04-25T04:08:47;7.63;;;3.73;;
1436;SDS011;712;51.026;13.792;2023-04-25T04:11:12;8.93;;;4.07;;
1436;SDS011;712;51.026;13.792;2023-04-25T04:13:37;6.77;;;3.90;;
1436;SDS011;712;51.026;13.792;2023-04-25T04:16:02;9.00;;;4.00;;
1436;SDS011;712;51.026;13.792;2023-04-25T04:18:29;8.05;;;3.80;;
1436;SDS011;712;51.026;13.792;2023-04-25T04:20:54;8.68;;;4.07;;
1436;SDS011;712;51.026;13.792;2023-04-25T04:23:19;7.55;;;3.80;;
1436;SDS011;712;51.026;13.792;2023-04-25T04:25:45;8.75;;;3.83;;
1436;SDS011;712;51.026;13.792;2023-04-25T04:28:11;9.52;;;3.95;;
1436;SDS011;712;51.026;13.792;2023-04-25T04:30:38;9.13;;;3.67;;
1436;SDS011;712;51.026;13.792;2023-04-25T04:33:04;7.85;;;3.70;;
1436;SDS011;712;51.026;13.792;2023-04-25T04:35:29;11.33;;;4.30;;
1436;SDS011;712;51.026;13.792;2023-04-25T04:37:54;9.63;;;4.00;;
1436;SDS011;712;51.026;13.792;2023-04-25T04:40:19;8.02;;;3.80;;
1436;SDS011;712;51.026;13.792;2023-04-25T04:42:45;8.82;;;3.72;;
1436;SDS011;712;51.026;13.792;2023-04-25T04:45:10;8.60;;;3.87;;
1436;SDS011;712;51.026;13.792;2023-04-25T04:47:36;8.05;;;4.05;;
1436;SDS011;712;51.026;13.792;2023-04-25T04:50:01;8.55;;;3.60;;
1436;SDS011;712;51.026;13.792;2023-04-25T04:52:27;9.10;;;3.78;;
1436;SDS011;712;51.026;13.792;2023-04-25T04:54:52;10.75;;;4.15;;
1436;SDS011;712;51.026;13.792;2023-04-25T04:57:17;7.50;;;3.67;;
1436;SDS011;712;51.026;13.792;2023-04-25T04:59:42;8.70;;;3.80;;
1436;SDS011;712;51.026;13.792;2023-04-25T05:02:07;8.83;;;3.80;;
1436;SDS011;712;51.026;13.792;2023-04-25T05:04:33;7.93;;;3.30;;
1436;SDS011;712;51.026;13.792;2023-04-25T05:06:58;6.90;;;3.22;;
1436;SDS011;712;51.026;13.792;2023-04-25T05:09:23;6.97;;;3.20;;
1436;SDS011;712;51.026;13.792;2023-04-25T05:11:50;7.72;;;3.63;;
1436;SDS011;712;51.026;13.792;2023-04-25T05:14:15;8.63;;;3.83;;
1436;SDS011;712;51.026;13.792;2023-04-25T05:16:42;9.55;;;4.00;;
1436;SDS011;712;51.026;13.792;2023-04-25T05:19:07;6.93;;;3.22;;
1436;SDS011;712;51.026;13.792;2023-04-25T05:21:32;8.93;;;4.23;;
1436;SDS011;712;51.026;13.792;2023-04-25T05:23:57;7.37;;;3.57;;
1436;SDS011;712;51.026;13.792;2023-04-25T05:26:22;7.30;;;3.35;;
1436;SDS011;712;51.026;13.792;2023-04-25T05:28:48;9.43;;;3.55;;
1436;SDS011;712;51.026;13.792;2023-04-25T05:31:15;6.32;;;3.60;;
1436;SDS011;712;51.026;13.792;2023-04-25T05:33:40;7.18;;;3.30;;
1436;SDS011;712;51.026;13.792;2023-04-25T05:36:06;6.95;;;3.30;;
1436;SDS011;712;51.026;13.792;2023-04-25T05:38:31;7.47;;;3.50;;
1436;SDS011;712;51.026;13.792;2023-04-25T05:40:56;7.47;;;3.40;;
1436;SDS011;712;51.026;13.792;2023-04-25T05:43:22;9.00;;;3.57;;
1436;SDS011;712;51.026;13.792;2023-04-25T05:45:47;7.38;;;3.10;;
1436;SDS011;712;51.026;13.792;2023-04-25T05:48:12;9.23;;;3.40;;
1436;SDS011;712;51.026;13.792;2023-04-25T05:50:37;9.73;;;3.53;;
1436;SDS011;712;51.026;13.792;2023-04-25T05:53:02;6.47;;;3.10;;
1436;SDS011;712;51.026;13.792;2023-04-25T05:55:27;7.80;;;2.92;;
1436;SDS011;712;51.026;13.792;2023-04-25T05:57:52;9.50;;;3.78;;
1436;SDS011;712;51.026;13.792;2023-04-25T06:00:18;10.10;;;3.00;;
1436;SDS011;712;51.026;13.792;2023-04-25T06:02:43;9.10;;;3.88;;
1436;SDS011;712;51.026;13.792;2023-04-25T06:05:09;8.63;;;3.60;;
1436;SDS011;712;51.026;13.792;2023-04-25T06:07:34;7.50;;;3.13;;
1436;SDS011;712;51.026;13.792;2023-04-25T06:09:59;7.77;;;3.77;;
1436;SDS011;712;51.026;13.792;2023-04-25T06:12:25;8.82;;;3.85;;
1436;SDS011;712;51.026;13.792;2023-04-25T06:14:50;8.27;;;3.83;;
1436;SDS011;712;51.026;13.792;2023-04-25T06:17:16;8.63;;;3.38;;
1436;SDS011;712;51.026;13.792;2023-04-25T06:19:41;7.70;;;3.22;;
1436;SDS011;712;51.026;13.792;2023-04-25T06:22:07;10.00;;;4.27;;
1436;SDS011;712;51.026;13.792;2023-04-25T06:24:32;9.18;;;3.53;;
1436;SDS011;712;51.026;13.792;2023-04-25T06:26:57;7.20;;;3.47;;
1436;SDS011;712;51.026;13.792;2023-04-25T06:29:22;9.60;;;4.35;;
1436;SDS011;712;51.026;13.792;2023-04-25T06:31:47;8.23;;;3.70;;
1436;SDS011;712;51.026;13.792;2023-04-25T06:34:12;8.15;;;4.00;;
1436;SDS011;712;51.026;13.792;2023-04-25T06:36:38;9.45;;;3.95;;
1436;SDS011;712;51.026;13.792;2023-04-25T06:39:04;8.55;;;4.05;;
1436;SDS011;712;51.026;13.792;2023-04-25T06:41:29;7.45;;;4.00;;
1436;SDS011;712;51.026;13.792;2023-04-25T06:43:55;9.53;;;4.10;;
1436;SDS011;712;51.026;13.792;2023-04-25T06:46:20;9.48;;;3.95;;
1436;SDS011;712;51.026;13.792;2023-04-25T06:48:45;8.23;;;4.03;;
1436;SDS011;712;51.026;13.792;2023-04-25T06:51:10;9.30;;;4.30;;
1436;SDS011;712;51.026;13.792;2023-04-25T06:53:36;10.13;;;4.47;;
1436;SDS011;712;51.026;13.792;2023-04-25T06:56:01;9.83;;;4.17;;
1436;SDS011;712;51.026;13.792;2023-04-25T06:58:26;9.43;;;4.80;;
1436;SDS011;712;51.026;13.792;2023-04-25T07:00:51;10.35;;;4.13;;
1436;SDS011;712;51.026;13.792;2023-04-25T07:03:16;9.40;;;4.10;;
1436;SDS011;712;51.026;13.792;2023-04-25T07:05:41;8.90;;;4.38;;
1436;SDS011;712;51.026;13.792;2023-04-25T07:08:07;9.60;;;4.43;;
1436;SDS011;712;51.026;13.792;2023-04-25T07:10:32;8.20;;;4.30;;
1436;SDS011;712;51.026;13.792;2023-04-25T07:12:57;9.87;;;4.27;;
1436;SDS011;712;51.026;13.792;2023-04-25T07:15:22;10.00;;;4.38;;
1436;SDS011;712;51.026;13.792;2023-04-25T07:17:47;9.45;;;4.05;;
1436;SDS011;712;51.026;13.792;2023-04-25T07:20:12;9.77;;;4.00;;
1436;SDS011;712;51.026;13.792;2023-04-25T07:22:38;9.67;;;3.90;;
1436;SDS011;712;51.026;13.792;2023-04-25T07:25:03;10.40;;;4.32;;
1436;SDS011;712;51.026;13.792;2023-04-25T07:27:29;10.07;;;3.75;;
1436;SDS011;712;51.026;13.792;2023-04-25T07:29:54;8.50;;;3.67;;
1436;SDS011;712;51.026;13.792;2023-04-25T07:32:19;9.33;;;3.80;;
1436;SDS011;712;51.026;13.792;2023-04-25T07:34:44;9.43;;;3.40;;
1436;SDS011;712;51.026;13.792;2023-04-25T07:37:10;10.00;;;3.73;;
1436;SDS011;712;51.026;13.792;2023-04-25T07:39:35;8.10;;;3.40;;
1436;SDS011;712;51.026;13.792;2023-04-25T07:42:01;8.77;;;3.33;;
1436;SDS011;712;51.026;13.792;2023-04-25T07:44:27;9.17;;;3.63;;
1436;SDS011;712;51.026;13.792;2023-04-25T07:46:52;6.47;;;3.25;;
1436;SDS011;712;51.026;13.792;2023-04-25T07:49:17;8.07;;;2.92;;
1436;SDS011;712;51.026;13.792;2023-04-25T07:51:42;6.63;;;3.22;;
1436;SDS011;712;51.026;13.792;2023-04-25T07:54:13;6.95;;;3.22;;
1436;SDS011;712;51.026;13.792;2023-04-25T07:56:38;7.50;;;3.00;;
1436;SDS011;712;51.026;13.792;2023-04-25T07:59:03;7.50;;;3.03;;
1436;SDS011;712;51.026;13.792;2023-04-25T08:01:28;6.55;;;3.40;;
1436;SDS011;712;51.026;13.792;2023-04-25T08:03:53;8.52;;;3.40;;
1436;SDS011;712;51.026;13.792;2023-04-25T08:06:19;7.73;;;3.23;;
1436;SDS011;712;51.026;13.792;2023-04-25T08:08:44;8.45;;;3.50;;
1436;SDS011;712;51.026;13.792;2023-04-25T08:11:10;7.80;;;3.47;;
1436;SDS011;712;51.026;13.792;2023-04-25T08:13:35;8.95;;;3.17;;
1436;SDS011;712;51.026;13.792;2023-04-25T08:16:00;8.20;;;3.10;;
1436;SDS011;712;51.026;13.792;2023-04-25T08:18:25;7.25;;;2.50;;
1436;SDS011;712;51.026;13.792;2023-04-25T08:20:51;7.20;;;2.97;;
1436;SDS011;712;51.026;13.792;2023-04-25T08:23:16;4.90;;;2.33;;
1436;SDS011;712;51.026;13.792;2023-04-25T08:25:41;7.83;;;3.10;;
1436;SDS011;712;51.026;13.792;2023-04-25T08:28:06;6.57;;;2.73;;
1436;SDS011;712;51.026;13.792;2023-04-25T08:30:31;5.97;;;2.70;;
1436;SDS011;712;51.026;13.792;2023-04-25T08:32:56;7.20;;;2.60;;
1436;SDS011;712;51.026;13.792;2023-04-25T08:35:22;5.32;;;2.25;;
1436;SDS011;712;51.026;13.792;2023-04-25T08:37:47;7.23;;;2.33;;
1436;SDS011;712;51.026;13.792;2023-04-25T08:40:14;5.47;;;2.38;;
1436;SDS011;712;51.026;13.792;2023-04-25T08:42:40;4.65;;;2.05;;
1436;SDS011;712;51.026;13.792;2023-04-25T08:45:06;8.45;;;2.55;;
1436;SDS011;712;51.026;13.792;2023-04-25T08:47:31;6.85;;;2.45;;
1436;SDS011;712;51.026;13.792;2023-04-25T08:49:57;6.22;;;2.47;;
1436;SDS011;712;51.026;13.792;2023-04-25T08:52:23;6.28;;;2.30;;
1436;SDS011;712;51.026;13.792;2023-04-25T08:54:49;7.10;;;2.70;;
1436;SDS011;712;51.026;13.792;2023-04-25T08:57:14;6.90;;;2.13;;
1436;SDS011;712;51.026;13.792;2023-04-25T08:59:40;5.65;;;2.47;;
1436;SDS011;712;51.026;13.792;2023-04-25T09:02:09;5.63;;;2.25;;
1436;SDS011;712;51.026;13.792;2023-04-25T09:04:36;7.32;;;2.60;;
1436;SDS011;712;51.026;13.792;2023-04-25T09:07:02;5.90;;;2.53;;
1436;SDS011;712;51.026;13.792;2023-04-25T09:09:27;6.07;;;2.53;;
1436;SDS011;712;51.026;13.792;2023-04-25T09:11:52;7.83;;;2.70;;
1436;SDS011;712;51.026;13.792;2023-04-25T09:14:20;6.45;;;2.97;;
1436;SDS011;712;51.026;13.792;2023-04-25T09:19:21;6.07;;;2.92;;
1436;SDS011;712;51.026;13.792;2023-04-25T09:21:50;6.82;;;2.90;;
1436;SDS011;712;51.026;13.792;2023-04-25T09:24:16;8.48;;;3.75;;
1436;SDS011;712;51.026;13.792;2023-04-25T09:26:41;8.00;;;3.20;;
1436;SDS011;712;51.026;13.792;2023-04-25T09:29:06;8.53;;;3.40;;
1436;SDS011;712;51.026;13.792;2023-04-25T09:31:32;6.45;;;3.00;;
1436;SDS011;712;51.026;13.792;2023-04-25T09:33:58;7.63;;;3.58;;
1436;SDS011;712;51.026;13.792;2023-04-25T09:36:25;10.10;;;3.53;;
1436;SDS011;712;51.026;13.792;2023-04-25T09:38:50;6.82;;;3.65;;
1436;SDS011;712;51.026;13.792;2023-04-25T09:41:15;7.07;;;3.50;;
1436;SDS011;712;51.026;13.792;2023-04-25T09:43:47;6.15;;;2.92;;
1436;SDS011;712;51.026;13.792;2023-04-25T09:46:13;6.20;;;2.80;;
1436;SDS011;712;51.026;13.792;2023-04-25T09:48:39;8.85;;;3.35;;
1436;SDS011;712;51.026;13.792;2023-04-25T09:51:07;7.23;;;3.20;;
1436;SDS011;712;51.026;13.792;2023-04-25T09:53:33;8.30;;;3.13;;
1436;SDS011;712;51.026;13.792;2023-04-25T09:55:59;8.57;;;3.30;;
1436;SDS011;712;51.026;13.792;2023-04-25T09:58:25;7.78;;;3.08;;
1436;SDS011;712;51.026;13.792;2023-04-25T10:00:51;8.93;;;3.45;;
1436;SDS011;712;51.026;13.792;2023-04-25T10:03:17;11.03;;;3.50;;
1436;SDS011;712;51.026;13.792;2023-04-25T10:05:42;9.30;;;3.80;;
1436;SDS011;712;51.026;13.792;2023-04-25T10:08:08;8.93;;;3.97;;
1436;SDS011;712;51.026;13.792;2023-04-25T10:10:33;6.57;;;3.65;;
1436;SDS011;712;51.026;13.792;2023-04-25T10:13:02;8.07;;;4.38;;
1436;SDS011;712;51.026;13.792;2023-04-25T10:15:27;7.07;;;3.35;;
1436;SDS011;712;51.026;13.792;2023-04-25T10:17:52;9.87;;;3.70;;
1436;SDS011;712;51.026;13.792;2023-04-25T10:20:17;8.60;;;3.40;;
1436;SDS011;712;51.026;13.792;2023-04-25T10:22:44;7.50;;;3.33;;
1436;SDS011;712;51.026;13.792;2023-04-25T10:25:10;7.43;;;3.15;;
1436;SDS011;712;51.026;13.792;2023-04-25T10:27:36;7.40;;;3.10;;
1436;SDS011;712;51.026;13.792;2023-04-25T10:30:06;8.05;;;2.50;;
1436;SDS011;712;51.026;13.792;2023-04-25T10:32:34;6.35;;;2.65;;
1436;SDS011;712;51.026;13.792;2023-04-25T10:35:13;10.15;;;3.20;;
1436;SDS011;712;51.026;13.792;2023-04-25T10:37:42;5.10;;;2.53;;
1436;SDS011;712;51.026;13.792;2023-04-25T10:40:24;6.05;;;2.80;;
1436;SDS011;712;51.026;13.792;2023-04-25T10:42:51;7.53;;;2.80;;
1436;SDS011;712;51.026;13.792;2023-04-25T10:45:16;7.40;;;3.00;;
1436;SDS011;712;51.026;13.792;2023-04-25T10:47:45;5.28;;;2.88;;
1436;SDS011;712;51.026;13.792;2023-04-25T10:50:10;5.50;;;2.53;;
1436;SDS011;712;51.026;13.792;2023-04-25T10:52:36;7.80;;;3.03;;
1436;SDS011;712;51.026;13.792;2023-04-25T10:55:03;6.13;;;2.72;;
1436;SDS011;712;51.026;13.792;2023-04-25T11:02:31;8.15;;;3.10;;
1436;SDS011;712;51.026;13.792;2023-04-25T11:04:56;9.73;;;3.17;;
1436;SDS011;712;51.026;13.792;2023-04-25T11:09:47;6.80;;;3.03;;
1436;SDS011;712;51.026;13.792;2023-04-25T11:12:13;7.13;;;3.67;;
1436;SDS011;712;51.026;13.792;2023-04-25T11:14:39;7.07;;;3.40;;
1436;SDS011;712;51.026;13.792;2023-04-25T11:17:04;8.98;;;4.32;;
1436;SDS011;712;51.026;13.792;2023-04-25T11:19:30;8.15;;;4.00;;
1436;SDS011;712;51.026;13.792;2023-04-25T11:21:56;7.90;;;3.70;;
1436;SDS011;712;51.026;13.792;2023-04-25T11:24:25;8.93;;;3.70;;
1436;SDS011;712;51.026;13.792;2023-04-25T11:26:50;8.27;;;3.58;;
1436;SDS011;712;51.026;13.792;2023-04-25T11:29:15;8.48;;;3.97;;
1436;SDS011;712;51.026;13.792;2023-04-25T11:31:43;8.37;;;3.40;;
1436;SDS011;712;51.026;13.792;2023-04-25T11:34:08;11.80;;;3.20;;
1436;SDS011;712;51.026;13.792;2023-04-25T11:36:33;8.93;;;3.20;;
1436;SDS011;712;51.026;13.792;2023-04-25T11:38:59;7.35;;;2.60;;
1436;SDS011;712;51.026;13.792;2023-04-25T11:41:25;6.85;;;1.98;;
1436;SDS011;712;51.026;13.792;2023-04-25T11:43:50;5.28;;;2.00;;
1436;SDS011;712;51.026;13.792;2023-04-25T11:46:16;5.00;;;1.92;;
1436;SDS011;712;51.026;13.792;2023-04-25T11:48:42;7.93;;;1.60;;
1436;SDS011;712;51.026;13.792;2023-04-25T11:51:07;4.78;;;1.25;;
1436;SDS011;712;51.026;13.792;2023-04-25T11:53:34;5.00;;;1.30;;
1436;SDS011;712;51.026;13.792;2023-04-25T11:55:59;6.53;;;1.70;;
1436;SDS011;712;51.026;13.792;2023-04-25T11:58:25;5.55;;;1.70;;
1436;SDS011;712;51.026;13.792;2023-04-25T12:00:50;6.13;;;1.92;;
1436;SDS011;712;51.026;13.792;2023-04-25T12:03:15;5.70;;;1.90;;
1436;SDS011;712;51.026;13.792;2023-04-25T12:05:42;4.95;;;1.77;;
1436;SDS011;712;51.026;13.792;2023-04-25T12:08:10;4.13;;;1.50;;
1436;SDS011;712;51.026;13.792;2023-04-25T12:10:37;6.88;;;1.98;;
1436;SDS011;712;51.026;13.792;2023-04-25T12:13:17;7.63;;;1.77;;
1436;SDS011;712;51.026;13.792;2023-04-25T12:15:42;5.55;;;1.73;;
1436;SDS011;712;51.026;13.792;2023-04-25T12:18:07;5.70;;;1.80;;
1436;SDS011;712;51.026;13.792;2023-04-25T12:20:32;8.47;;;1.90;;
1436;SDS011;712;51.026;13.792;2023-04-25T12:22:57;6.83;;;1.90;;
1436;SDS011;712;51.026;13.792;2023-04-25T12:25:41;7.32;;;2.10;;
1436;SDS011;712;51.026;13.792;2023-04-25T12:28:18;7.00;;;2.17;;
1436;SDS011;712;51.026;13.792;2023-04-25T12:31:06;6.40;;;2.10;;
1436;SDS011;712;51.026;13.792;2023-04-25T12:33:35;7.30;;;1.80;;
1436;SDS011;712;51.026;13.792;2023-04-25T12:36:01;8.88;;;2.30;;
1436;SDS011;712;51.026;13.792;2023-04-25T12:38:40;8.95;;;2.13;;
1436;SDS011;712;51.026;13.792;2023-04-25T12:43:31;8.15;;;2.10;;
1436;SDS011;712;51.026;13.792;2023-04-25T12:45:56;9.60;;;2.20;;
1436;SDS011;712;51.026;13.792;2023-04-25T12:48:22;13.07;;;2.58;;
1436;SDS011;712;51.026;13.792;2023-04-25T12:50:47;7.55;;;1.92;;
1436;SDS011;712;51.026;13.792;2023-04-25T12:53:18;8.00;;;2.20;;
1436;SDS011;712;51.026;13.792;2023-04-25T12:55:44;8.20;;;2.08;;
1436;SDS011;712;51.026;13.792;2023-04-25T12:58:11;7.70;;;2.25;;
1436;SDS011;712;51.026;13.792;2023-04-25T13:00:37;9.23;;;2.42;;
1436;SDS011;712;51.026;13.792;2023-04-25T13:03:02;9.57;;;2.70;;
1436;SDS011;712;51.026;13.792;2023-04-25T13:05:28;9.68;;;2.60;;
1436;SDS011;712;51.026;13.792;2023-04-25T13:07:53;10.48;;;2.58;;
1436;SDS011;712;51.026;13.792;2023-04-25T13:10:18;8.87;;;2.93;;
1436;SDS011;712;51.026;13.792;2023-04-25T13:12:43;10.63;;;2.80;;
1436;SDS011;712;51.026;13.792;2023-04-25T13:15:09;7.27;;;2.37;;
1436;SDS011;712;51.026;13.792;2023-04-25T13:17:36;11.32;;;2.53;;
1436;SDS011;712;51.026;13.792;2023-04-25T13:20:01;10.73;;;2.60;;
1436;SDS011;712;51.026;13.792;2023-04-25T13:22:26;9.73;;;2.53;;
1436;SDS011;712;51.026;13.792;2023-04-25T13:24:51;10.23;;;2.78;;
1436;SDS011;712;51.026;13.792;2023-04-25T13:27:16;10.50;;;2.85;;
1436;SDS011;712;51.026;13.792;2023-04-25T13:29:41;8.13;;;2.65;;
1436;SDS011;712;51.026;13.792;2023-04-25T13:32:08;13.75;;;2.97;;
1436;SDS011;712;51.026;13.792;2023-04-25T13:34:33;9.40;;;2.78;;
1436;SDS011;712;51.026;13.792;2023-04-25T13:36:58;11.50;;;3.42;;
1436;SDS011;712;51.026;13.792;2023-04-25T13:39:24;14.77;;;2.88;;
1436;SDS011;712;51.026;13.792;2023-04-25T13:41:49;12.93;;;3.23;;
1436;SDS011;712;51.026;13.792;2023-04-25T13:44:14;10.23;;;2.90;;
1436;SDS011;712;51.026;13.792;2023-04-25T13:46:39;9.93;;;3.00;;
1436;SDS011;712;51.026;13.792;2023-04-25T13:49:04;14.23;;;3.40;;
1436;SDS011;712;51.026;13.792;2023-04-25T13:51:30;9.52;;;2.28;;
1436;SDS011;712;51.026;13.792;2023-04-25T13:53:55;7.70;;;2.20;;
1436;SDS011;712;51.026;13.792;2023-04-25T13:56:20;8.70;;;2.93;;
1436;SDS011;712;51.026;13.792;2023-04-25T13:58:47;12.05;;;2.40;;
1436;SDS011;712;51.026;13.792;2023-04-25T14:01:12;9.07;;;2.40;;
1436;SDS011;712;51.026;13.792;2023-04-25T14:03:37;9.85;;;2.40;;
1436;SDS011;712;51.026;13.792;2023-04-25T14:06:02;7.53;;;2.22;;
1436;SDS011;712;51.026;13.792;2023-04-25T14:10:54;10.98;;;2.88;;
1436;SDS011;712;51.026;13.792;2023-04-25T14:13:19;11.80;;;2.50;;
1436;SDS011;712;51.026;13.792;2023-04-25T14:15:45;12.05;;;2.45;;
1436;SDS011;712;51.026;13.792;2023-04-25T14:18:10;6.87;;;2.40;;
1436;SDS011;712;51.026;13.792;2023-04-25T14:20:35;9.82;;;2.50;;
1436;SDS011;712;51.026;13.792;2023-04-25T14:23:00;12.77;;;2.83;;
1436;SDS011;712;51.026;13.792;2023-04-25T14:25:26;9.57;;;2.80;;
1436;SDS011;712;51.026;13.792;2023-04-25T14:27:51;10.57;;;3.23;;
1436;SDS011;712;51.026;13.792;2023-04-25T14:30:17;8.97;;;2.70;;
1436;SDS011;712;51.026;13.792;2023-04-25T14:32:42;8.80;;;2.92;;
1436;SDS011;712;51.026;13.792;2023-04-25T14:35:07;9.27;;;2.60;;
1436;SDS011;712;51.026;13.792;2023-04-25T14:37:33;11.57;;;2.42;;
1436;SDS011;712;51.026;13.792;2023-04-25T14:39:58;10.40;;;2.83;;
1436;SDS011;712;51.026;13.792;2023-04-25T14:42:23;9.82;;;2.80;;
1436;SDS011;712;51.026;13.792;2023-04-25T14:44:48;9.77;;;2.80;;
1436;SDS011;712;51.026;13.792;2023-04-25T14:47:13;10.80;;;2.70;;
1436;SDS011;712;51.026;13.792;2023-04-25T14:49:38;11.30;;;2.80;;
1436;SDS011;712;51.026;13.792;2023-04-25T14:52:04;14.82;;;2.92;;
1436;SDS011;712;51.026;13.792;2023-04-25T14:54:29;8.13;;;2.70;;
1436;SDS011;712;51.026;13.792;2023-04-25T14:56:54;11.25;;;2.55;;
1436;SDS011;712;51.026;13.792;2023-04-25T14:59:19;10.00;;;2.85;;
1436;SDS011;712;51.026;13.792;2023-04-25T15:01:45;10.93;;;2.33;;
1436;SDS011;712;51.026;13.792;2023-04-25T15:04:10;8.65;;;3.03;;
1436;SDS011;712;51.026;13.792;2023-04-25T15:09:02;10.50;;;2.80;;
1436;SDS011;712;51.026;13.792;2023-04-25T15:11:27;15.17;;;2.87;;
1436;SDS011;712;51.026;13.792;2023-04-25T15:13:53;10.70;;;3.00;;
1436;SDS011;712;51.026;13.792;2023-04-25T15:16:18;7.97;;;2.88;;
1436;SDS011;712;51.026;13.792;2023-04-25T15:18:43;10.95;;;2.15;;
1436;SDS011;712;51.026;13.792;2023-04-25T15:21:08;11.10;;;2.50;;
1436;SDS011;712;51.026;13.792;2023-04-25T15:23:33;14.47;;;3.67;;